createdAt,value
2022-11-12T00:00:39.407Z,13.18
2022-11-12T00:03:09.708Z,12.70
2022-11-12T00:05:40.078Z,12.77
2022-11-12T00:08:16.230Z,13.48
2022-11-12T00:10:46.625Z,11.88
2022-11-12T00:13:17.194Z,12.52
2022-11-12T00:15:49.784Z,12.63
2022-11-12T00:18:19.704Z,11.52
2022-11-12T00:20:49.733Z,11.88
2022-11-12T00:23:19.729Z,11.75
2022-11-12T00:25:49.651Z,11.93
2022-11-12T00:28:19.543Z,10.88
2022-11-12T00:30:49.425Z,11.07
2022-11-12T00:33:19.292Z,11.80
2022-11-12T00:35:50.594Z,12.70
2022-11-12T00:38:20.596Z,11.15
2022-11-12T00:40:50.474Z,11.15
2022-11-12T00:43:20.615Z,11.80
2022-11-12T00:45:50.158Z,12.32
2022-11-12T00:48:19.672Z,11.02
2022-11-12T00:50:49.326Z,11.73
2022-11-12T00:53:19.629Z,11.80
2022-11-12T00:55:49.152Z,13.93
2022-11-12T00:58:18.649Z,11.88
2022-11-12T01:00:48.202Z,11.85
2022-11-12T01:03:17.812Z,12.77
2022-11-12T01:05:47.395Z,11.88
2022-11-12T01:08:16.891Z,12.18
2022-11-12T01:10:46.483Z,12.07
2022-11-12T01:13:16.272Z,11.80
2022-11-12T01:15:45.811Z,12.05
2022-11-12T01:18:15.914Z,13.35
2022-11-12T01:20:45.590Z,12.43
2022-11-12T01:23:15.121Z,11.98
2022-11-12T01:25:44.630Z,11.80
2022-11-12T01:28:14.428Z,12.10
2022-11-12T01:30:43.911Z,12.50
2022-11-12T01:33:13.399Z,11.40
2022-11-12T01:35:42.952Z,12.35
2022-11-12T01:38:12.446Z,11.43
2022-11-12T01:40:41.943Z,11.13
2022-11-12T01:43:15.511Z,12.27
2022-11-12T01:45:48.802Z,11.88
2022-11-12T01:48:30.703Z,11.60
2022-11-12T01:51:00.887Z,11.20
2022-11-12T01:53:35.161Z,11.40
2022-11-12T01:56:07.603Z,11.07
2022-11-12T01:58:40.555Z,11.38
2022-11-12T02:01:10.584Z,11.02
2022-11-12T02:03:40.502Z,11.77
2022-11-12T02:06:15.241Z,10.77
2022-11-12T02:08:46.535Z,9.73
2022-11-12T02:11:19.386Z,10.35
2022-11-12T02:14:00.367Z,10.45
2022-11-12T02:16:38.618Z,10.50
2022-11-12T02:19:15.038Z,9.30
2022-11-12T02:21:45.695Z,9.98
2022-11-12T02:24:35.683Z,9.27
2022-11-12T02:27:08.015Z,9.35
2022-11-12T02:29:37.997Z,8.93
2022-11-12T02:32:08.006Z,8.57
2022-11-12T02:34:37.947Z,9.20
2022-11-12T02:37:08.587Z,8.68
2022-11-12T02:39:38.437Z,9.13
2022-11-12T02:42:08.436Z,8.18
2022-11-12T02:44:38.552Z,8.90
2022-11-12T02:47:09.020Z,8.27
2022-11-12T02:49:38.951Z,7.20
2022-11-12T02:52:08.974Z,6.75
2022-11-12T02:54:39.553Z,7.72
2022-11-12T02:57:09.490Z,7.40
2022-11-12T02:59:39.425Z,7.95
2022-11-12T03:02:09.597Z,7.93
2022-11-12T03:04:40.974Z,7.38
2022-11-12T03:07:13.860Z,7.85
2022-11-12T03:09:44.378Z,8.15
2022-11-12T03:12:14.826Z,6.90
2022-11-12T03:14:45.340Z,7.20
2022-11-12T03:17:15.808Z,7.07
2022-11-12T03:19:46.240Z,7.10
2022-11-12T03:22:16.694Z,7.53
2022-11-12T03:24:49.960Z,7.05
2022-11-12T03:27:20.503Z,6.47
2022-11-12T03:29:50.957Z,5.45
2022-11-12T03:32:21.363Z,5.45
2022-11-12T03:34:55.292Z,4.75
2022-11-12T03:37:26.112Z,5.28
2022-11-12T03:39:56.552Z,5.85
2022-11-12T03:42:27.119Z,5.65
2022-11-12T03:44:57.219Z,5.63
2022-11-12T03:47:30.327Z,5.88
2022-11-12T03:50:00.492Z,5.53
2022-11-12T03:52:30.574Z,5.30
2022-11-12T03:55:02.106Z,4.88
2022-11-12T03:57:32.195Z,4.75
2022-11-12T04:00:02.227Z,5.63
2022-11-12T04:02:38.936Z,5.60
2022-11-12T04:05:32.335Z,5.05
2022-11-12T04:08:34.173Z,5.38
2022-11-12T04:11:05.879Z,4.53
2022-11-12T04:13:35.807Z,4.55
2022-11-12T04:16:35.040Z,4.00
2022-11-12T04:19:25.901Z,4.28
2022-11-12T04:21:59.191Z,4.38
2022-11-12T04:24:59.680Z,5.13
2022-11-12T04:27:33.197Z,5.25
2022-11-12T04:30:22.596Z,4.82
2022-11-12T04:32:58.453Z,5.20
2022-11-12T04:35:29.640Z,4.40
2022-11-12T04:37:59.203Z,4.97
2022-11-12T04:40:49.390Z,5.07
2022-11-12T04:43:39.979Z,4.72
2022-11-12T04:46:09.627Z,4.82
2022-11-12T04:48:39.179Z,5.35
2022-11-12T04:51:28.669Z,5.28
2022-11-12T04:53:58.735Z,4.63
2022-11-12T04:56:28.535Z,4.72
2022-11-12T04:58:58.064Z,5.30
2022-11-12T05:01:27.870Z,4.25
2022-11-12T05:03:57.400Z,4.38
2022-11-12T05:06:46.636Z,4.80
2022-11-12T05:09:16.187Z,4.28
2022-11-12T05:11:46.114Z,4.57
2022-11-12T05:14:16.045Z,4.97
2022-11-12T05:16:46.258Z,4.68
2022-11-12T05:19:15.850Z,5.00
2022-11-12T05:22:05.261Z,4.93
2022-11-12T05:24:42.575Z,5.03
2022-11-12T05:27:16.010Z,4.43
2022-11-12T05:29:45.797Z,5.85
2022-11-12T05:32:17.275Z,4.82
2022-11-12T05:34:47.268Z,4.95
2022-11-12T05:37:18.877Z,4.65
2022-11-12T05:39:53.150Z,4.75
2022-11-12T05:42:23.773Z,4.75
2022-11-12T05:44:56.785Z,4.30
2022-11-12T05:47:26.358Z,4.55
2022-11-12T05:49:55.970Z,4.70
2022-11-12T05:52:25.986Z,4.72
2022-11-12T05:54:55.568Z,4.65
2022-11-12T05:57:25.979Z,4.65
2022-11-12T05:59:55.511Z,4.25
2022-11-12T06:02:25.259Z,4.43
2022-11-12T06:04:55.138Z,4.28
2022-11-12T06:07:25.403Z,4.43
2022-11-12T06:09:55.006Z,4.22
2022-11-12T06:12:24.517Z,4.72
2022-11-12T06:14:54.211Z,4.45
2022-11-12T06:17:23.988Z,4.43
2022-11-12T06:19:53.864Z,5.07
2022-11-12T06:22:23.869Z,5.70
2022-11-12T06:24:54.185Z,4.93
2022-11-12T06:27:25.709Z,4.88
2022-11-12T06:29:55.668Z,4.47
2022-11-12T06:32:29.972Z,4.60
2022-11-12T06:35:03.153Z,4.57
2022-11-12T06:37:33.123Z,4.88
2022-11-12T06:40:03.033Z,5.13
2022-11-12T06:42:33.312Z,5.07
2022-11-12T06:45:04.733Z,4.15
2022-11-12T06:47:34.743Z,3.80
2022-11-12T06:50:04.721Z,4.28
2022-11-12T06:52:34.666Z,4.00
2022-11-12T06:55:06.574Z,4.65
2022-11-12T06:57:38.020Z,4.10
2022-11-12T07:00:08.582Z,4.68
2022-11-12T07:02:39.151Z,4.13
2022-11-12T07:05:09.538Z,4.13
2022-11-12T07:07:39.459Z,3.83
2022-11-12T07:10:09.932Z,4.20
2022-11-12T07:12:39.907Z,3.80
2022-11-12T07:15:09.854Z,3.55
2022-11-12T07:17:39.476Z,2.90
2022-11-12T07:20:10.024Z,3.55
2022-11-12T07:22:39.553Z,3.67
2022-11-12T07:25:09.429Z,4.25
2022-11-12T07:27:39.043Z,3.50
2022-11-12T07:30:09.241Z,3.80
2022-11-12T07:32:43.995Z,3.85
2022-11-12T07:35:15.564Z,4.10
2022-11-12T07:37:45.157Z,3.03
2022-11-12T07:40:15.035Z,3.38
2022-11-12T07:42:45.212Z,3.25
2022-11-12T07:45:15.173Z,3.78
2022-11-12T07:47:45.006Z,3.97
2022-11-12T07:50:17.845Z,2.75
2022-11-12T07:52:47.513Z,2.60
2022-11-12T07:55:17.107Z,2.17
2022-11-12T07:57:46.749Z,2.40
2022-11-12T08:00:17.539Z,2.42
2022-11-12T08:02:47.211Z,2.70
2022-11-12T08:05:21.115Z,2.55
2022-11-12T08:07:51.095Z,2.17
2022-11-12T08:10:20.719Z,2.60
2022-11-12T08:12:50.716Z,2.65
2022-11-12T08:15:20.789Z,2.42
2022-11-12T08:17:50.818Z,2.90
2022-11-12T08:20:20.832Z,2.38
2022-11-12T08:22:50.818Z,2.92
2022-11-12T08:25:20.837Z,3.00
2022-11-12T08:27:50.840Z,2.70
2022-11-12T08:30:20.453Z,3.20
2022-11-12T08:32:50.313Z,2.85
2022-11-12T08:35:20.024Z,2.75
2022-11-12T08:37:49.681Z,2.65
2022-11-12T08:40:19.328Z,2.40
2022-11-12T08:42:49.249Z,2.72
2022-11-12T08:45:18.879Z,2.70
2022-11-12T08:47:48.380Z,2.88
2022-11-12T08:50:21.295Z,2.67
2022-11-12T08:52:50.849Z,3.00
2022-11-12T08:55:20.630Z,2.83
2022-11-12T08:57:50.169Z,3.20
2022-11-12T09:00:20.218Z,2.60
2022-11-12T09:02:49.769Z,2.50
2022-11-12T09:05:19.394Z,2.67
2022-11-12T09:07:50.699Z,2.50
2022-11-12T09:10:20.675Z,2.95
2022-11-12T09:12:54.123Z,2.70
2022-11-12T09:15:40.206Z,2.67
2022-11-12T09:18:16.345Z,2.97
2022-11-12T09:20:46.906Z,2.72
2022-11-12T09:23:19.597Z,3.30
2022-11-12T09:25:49.166Z,3.13
2022-11-12T09:28:21.227Z,2.80
2022-11-12T09:30:52.700Z,2.70
2022-11-12T09:33:33.870Z,2.90
2022-11-12T09:36:04.641Z,2.90
2022-11-12T09:38:34.716Z,3.22
2022-11-12T09:41:30.283Z,3.25
2022-11-12T09:44:04.821Z,4.10
2022-11-12T09:47:01.855Z,3.83
2022-11-12T09:49:38.035Z,3.65
2022-11-12T09:52:18.614Z,4.20
2022-11-12T09:54:52.424Z,3.40
2022-11-12T09:57:22.383Z,2.85
2022-11-12T09:59:52.341Z,3.67
2022-11-12T10:02:37.893Z,2.60
2022-11-12T10:05:34.747Z,2.97
2022-11-12T10:08:43.486Z,2.75
2022-11-12T10:12:11.757Z,3.10
2022-11-12T10:15:40.020Z,3.20
2022-11-12T10:18:48.716Z,2.50
2022-11-12T10:21:36.661Z,2.88
2022-11-12T10:24:10.291Z,3.30
2022-11-12T10:26:41.586Z,3.40
2022-11-12T10:29:36.863Z,3.33
2022-11-12T10:32:06.879Z,3.28
2022-11-12T10:34:37.622Z,3.60
2022-11-12T10:37:46.462Z,3.85
2022-11-12T10:40:32.851Z,3.28
2022-11-12T10:43:08.015Z,3.40
2022-11-12T10:45:38.070Z,4.22
2022-11-12T10:48:26.826Z,3.70
2022-11-12T10:50:57.899Z,3.85
2022-11-12T10:53:40.153Z,3.67
2022-11-12T10:56:33.529Z,3.83
2022-11-12T10:59:23.746Z,3.50
2022-11-12T11:02:02.052Z,3.75
2022-11-12T11:04:37.131Z,4.22
2022-11-12T11:07:26.522Z,3.92
2022-11-12T11:10:02.087Z,4.43
2022-11-12T11:12:35.338Z,3.90
2022-11-12T11:15:25.791Z,3.65
2022-11-12T11:17:55.795Z,3.72
2022-11-12T11:20:52.228Z,3.67
2022-11-12T11:23:33.063Z,5.88
2022-11-12T11:26:26.796Z,7.43
2022-11-12T11:29:16.692Z,9.18
2022-11-12T11:32:00.448Z,9.75
2022-11-12T11:35:00.067Z,11.45
2022-11-12T11:37:38.875Z,11.18
2022-11-12T11:40:28.829Z,11.13
2022-11-12T11:43:33.074Z,9.20
2022-11-12T11:46:16.811Z,11.48
2022-11-12T11:49:09.792Z,25.50
2022-11-12T11:52:08.038Z,15.93
2022-11-12T11:55:17.036Z,9.77
2022-11-12T11:58:01.325Z,10.85
2022-11-12T12:01:02.218Z,11.82
2022-11-12T12:04:06.439Z,10.60
2022-11-12T12:06:59.917Z,14.68
2022-11-12T12:09:48.256Z,14.63
2022-11-12T12:12:57.207Z,13.57
2022-11-12T12:15:56.148Z,11.20
2022-11-12T12:18:53.290Z,11.18
2022-11-12T12:21:25.647Z,9.43
2022-11-12T12:24:15.123Z,9.50
2022-11-12T12:27:18.824Z,8.23
2022-11-12T12:29:59.095Z,9.07
2022-11-12T12:32:39.438Z,9.32
2022-11-12T12:35:48.265Z,10.50
2022-11-12T12:38:29.578Z,9.98
2022-11-12T12:41:29.285Z,10.57
2022-11-12T12:44:07.845Z,11.63
2022-11-12T12:46:44.492Z,12.70
2022-11-12T12:49:36.719Z,12.85
2022-11-12T12:52:06.833Z,12.23
2022-11-12T12:54:56.825Z,11.55
2022-11-12T12:57:39.671Z,12.57
2022-11-12T13:00:33.596Z,12.40
2022-11-12T13:03:03.691Z,12.65
2022-11-12T13:05:44.562Z,13.00
2022-11-12T13:08:25.853Z,14.20
2022-11-12T13:10:56.431Z,14.68
2022-11-12T13:13:36.563Z,13.32
2022-11-12T13:16:06.747Z,14.27
2022-11-12T13:18:59.717Z,15.00
2022-11-12T13:21:30.029Z,12.52
2022-11-12T13:24:12.631Z,13.35
2022-11-12T13:26:49.689Z,14.45
2022-11-12T13:29:27.408Z,13.53
2022-11-12T13:32:36.315Z,12.82
2022-11-12T13:35:45.086Z,13.55
2022-11-12T13:38:19.579Z,11.88
2022-11-12T13:41:11.216Z,12.18
2022-11-12T13:43:45.797Z,11.93
2022-11-12T13:46:35.698Z,11.05
2022-11-12T13:49:11.717Z,12.07
2022-11-12T13:51:48.860Z,10.95
2022-11-12T13:54:39.197Z,11.77
2022-11-12T13:57:30.076Z,11.27
2022-11-12T14:00:24.258Z,10.13
2022-11-12T14:03:10.327Z,10.38
2022-11-12T14:05:41.082Z,10.43
2022-11-12T14:08:47.707Z,10.05
2022-11-12T14:11:54.372Z,9.55
2022-11-12T14:14:47.519Z,9.15
2022-11-12T14:17:54.815Z,9.80
2022-11-12T14:20:40.277Z,10.05
2022-11-12T14:23:25.359Z,8.90
2022-11-12T14:25:58.405Z,9.57
2022-11-12T14:28:36.860Z,9.70
2022-11-12T14:31:13.803Z,8.80
2022-11-12T14:33:45.707Z,8.95
2022-11-12T14:36:20.794Z,9.25
2022-11-12T14:38:56.867Z,8.75
2022-11-12T14:41:34.355Z,8.43
2022-11-12T14:44:13.280Z,8.73
2022-11-12T14:46:59.006Z,9.40
2022-11-12T14:49:50.213Z,8.38
2022-11-12T14:52:30.985Z,8.75
2022-11-12T14:55:08.268Z,8.15
2022-11-12T14:57:38.151Z,9.73
2022-11-12T15:00:41.864Z,7.90
2022-11-12T15:03:17.976Z,8.80
2022-11-12T15:06:12.457Z,7.82
2022-11-12T15:08:42.958Z,8.40
2022-11-12T15:11:37.233Z,8.32
2022-11-12T15:14:07.828Z,8.55
2022-11-12T15:16:37.974Z,8.73
2022-11-12T15:19:28.262Z,8.30
2022-11-12T15:22:04.113Z,8.18
2022-11-12T15:24:37.259Z,8.77
2022-11-12T15:27:35.750Z,7.70
2022-11-12T15:30:37.113Z,8.40
2022-11-12T15:33:24.588Z,8.10
2022-11-12T15:36:02.228Z,6.90
2022-11-12T15:38:39.440Z,7.82
2022-11-12T15:41:21.853Z,8.63
2022-11-12T15:43:51.424Z,7.88
2022-11-12T15:46:21.312Z,7.50
2022-11-12T15:48:55.776Z,7.50
2022-11-12T15:51:26.501Z,8.10
2022-11-12T15:53:56.071Z,7.43
2022-11-12T15:56:25.668Z,7.22
2022-11-12T15:58:55.288Z,6.97
2022-11-12T16:01:24.975Z,7.47
2022-11-12T16:03:54.528Z,8.15
2022-11-12T16:06:24.064Z,8.25
2022-11-12T16:08:53.994Z,8.15
2022-11-12T16:11:43.121Z,8.73
2022-11-12T16:14:15.763Z,10.35
2022-11-12T16:16:45.272Z,8.82
2022-11-12T16:19:16.577Z,9.15
2022-11-12T16:21:46.188Z,9.60
2022-11-12T16:24:15.762Z,8.95
2022-11-12T16:26:45.513Z,9.52
2022-11-12T16:29:16.277Z,9.13
2022-11-12T16:31:46.377Z,9.82
2022-11-12T16:34:15.882Z,9.10
2022-11-12T16:36:45.464Z,8.35
2022-11-12T16:39:16.144Z,8.90
2022-11-12T16:41:45.717Z,9.50
2022-11-12T16:44:15.210Z,8.55
2022-11-12T16:46:45.624Z,8.10
2022-11-12T16:49:17.061Z,8.43
2022-11-12T16:51:47.695Z,8.32
2022-11-12T16:54:17.650Z,8.23
2022-11-12T16:56:47.542Z,9.82
2022-11-12T16:59:17.544Z,8.98
2022-11-12T17:01:47.506Z,8.77
2022-11-12T17:04:17.490Z,8.10
2022-11-12T17:06:47.575Z,8.48
2022-11-12T17:09:19.672Z,8.50
2022-11-12T17:11:49.646Z,8.80
2022-11-12T17:14:23.019Z,7.50
2022-11-12T17:16:55.819Z,8.93
2022-11-12T17:19:25.758Z,8.18
2022-11-12T17:21:56.037Z,7.78
2022-11-12T17:24:29.081Z,8.50
2022-11-12T17:26:59.558Z,8.20
2022-11-12T17:29:30.545Z,8.30
2022-11-12T17:32:00.532Z,8.25
2022-11-12T17:34:30.495Z,9.07
2022-11-12T17:37:00.551Z,8.55
2022-11-12T17:39:30.558Z,9.18
2022-11-12T17:42:00.966Z,8.13
2022-11-12T17:44:31.609Z,8.65
2022-11-12T17:47:01.546Z,7.93
2022-11-12T17:49:31.489Z,7.97
2022-11-12T17:52:04.461Z,7.95
2022-11-12T17:54:34.480Z,8.43
2022-11-12T17:57:04.398Z,8.70
2022-11-12T17:59:34.272Z,7.90
2022-11-12T18:02:04.152Z,7.95
2022-11-12T18:04:34.077Z,8.15
2022-11-12T18:07:04.015Z,7.70
2022-11-12T18:09:33.969Z,8.55
2022-11-12T18:12:03.937Z,7.10
2022-11-12T18:14:33.918Z,8.15
2022-11-12T18:17:03.905Z,7.85
2022-11-12T18:19:33.892Z,7.72
2022-11-12T18:22:04.035Z,7.70
2022-11-12T18:24:34.006Z,7.70
2022-11-12T18:27:03.942Z,7.18
2022-11-12T18:29:33.948Z,7.78
2022-11-12T18:32:03.922Z,7.90
2022-11-12T18:34:33.753Z,7.95
2022-11-12T18:37:03.754Z,7.07
2022-11-12T18:39:34.066Z,8.05
2022-11-12T18:42:04.318Z,6.90
2022-11-12T18:44:34.819Z,7.45
2022-11-12T18:47:04.775Z,7.93
2022-11-12T18:49:34.876Z,7.22
2022-11-12T18:52:04.830Z,7.72
2022-11-12T18:54:34.815Z,7.45
2022-11-12T18:57:04.944Z,6.70
2022-11-12T18:59:35.037Z,7.13
2022-11-12T19:02:05.068Z,6.38
2022-11-12T19:04:34.999Z,7.35
2022-11-12T19:07:05.013Z,6.95
2022-11-12T19:09:37.153Z,5.95
2022-11-12T19:12:07.305Z,6.78
2022-11-12T19:14:37.280Z,6.38
2022-11-12T19:17:07.285Z,6.40
2022-11-12T19:19:37.455Z,7.13
2022-11-12T19:22:07.454Z,5.72
2022-11-12T19:24:37.384Z,6.20
2022-11-12T19:27:07.326Z,6.28
2022-11-12T19:29:38.599Z,5.97
2022-11-12T19:32:09.380Z,6.28
2022-11-12T19:34:39.241Z,5.47
2022-11-12T19:39:59.185Z,5.72
2022-11-12T19:42:29.882Z,6.35
2022-11-12T19:44:59.992Z,5.80
2022-11-12T19:47:29.534Z,5.93
2022-11-12T19:49:59.190Z,6.40
2022-11-12T19:52:28.842Z,6.50
2022-11-12T19:54:58.503Z,6.30
2022-11-12T19:57:29.403Z,5.97
2022-11-12T19:59:59.018Z,5.65
2022-11-12T20:02:29.028Z,6.07
2022-11-12T20:04:58.670Z,6.07
2022-11-12T20:07:28.308Z,6.07
2022-11-12T20:10:00.909Z,6.45
2022-11-12T20:12:31.863Z,6.18
2022-11-12T20:15:01.466Z,5.88
2022-11-12T20:17:33.567Z,6.30
2022-11-12T20:20:03.096Z,5.55
2022-11-12T20:22:33.508Z,5.65
2022-11-12T20:25:03.429Z,5.60
2022-11-12T20:27:33.007Z,5.78
2022-11-12T20:30:02.558Z,5.90
2022-11-12T20:32:32.106Z,5.50
2022-11-12T20:35:01.734Z,5.10
2022-11-12T20:37:32.255Z,6.60
2022-11-12T20:40:01.888Z,5.55
2022-11-12T20:42:31.715Z,6.00
2022-11-12T20:45:02.626Z,5.07
2022-11-12T20:47:32.605Z,5.43
2022-11-12T20:50:02.604Z,5.68
2022-11-12T20:52:32.694Z,5.53
2022-11-12T20:55:02.610Z,5.10
2022-11-12T20:57:32.538Z,5.50
2022-11-12T21:00:02.505Z,6.22
2022-11-12T21:02:32.434Z,5.45
2022-11-12T21:05:02.424Z,5.57
2022-11-12T21:07:32.417Z,5.68
2022-11-12T21:10:02.548Z,5.35
2022-11-12T21:12:34.686Z,5.68
2022-11-12T21:15:04.699Z,5.78
2022-11-12T21:17:34.686Z,5.68
2022-11-12T21:20:04.758Z,5.93
2022-11-12T21:22:35.508Z,5.63
2022-11-12T21:25:05.465Z,5.55
2022-11-12T21:27:35.457Z,5.90
2022-11-12T21:30:05.654Z,5.47
2022-11-12T21:32:35.597Z,5.75
2022-11-12T21:35:05.606Z,6.20
2022-11-12T21:37:35.490Z,5.93
2022-11-12T21:40:05.652Z,5.43
2022-11-12T21:42:35.855Z,6.13
2022-11-12T21:45:06.572Z,5.88
2022-11-12T21:47:36.624Z,5.82
2022-11-12T21:50:07.818Z,5.97
2022-11-12T21:52:37.754Z,5.60
2022-11-12T21:55:08.154Z,5.82
2022-11-12T21:57:38.153Z,5.28
2022-11-12T22:00:39.554Z,6.22
2022-11-12T22:02:59.861Z,6.47
2022-11-12T22:05:29.837Z,5.78
2022-11-12T22:07:59.883Z,5.30
2022-11-12T22:10:29.741Z,6.25
2022-11-12T22:15:52.317Z,6.35
2022-11-12T22:18:22.140Z,5.88
2022-11-12T22:21:06.311Z,5.55
2022-11-12T22:23:39.599Z,5.30
2022-11-12T22:26:15.141Z,6.25
2022-11-12T22:28:45.605Z,6.20
2022-11-12T22:31:22.005Z,5.72
2022-11-12T22:33:52.440Z,6.25
2022-11-12T22:36:25.616Z,5.80
2022-11-12T22:38:57.648Z,7.03
2022-11-12T22:41:30.066Z,7.63
2022-11-12T22:44:02.309Z,6.90
2022-11-12T22:46:35.343Z,7.15
2022-11-12T22:49:07.019Z,6.70
2022-11-12T22:51:38.328Z,6.85
2022-11-12T22:54:11.006Z,6.32
2022-11-12T22:56:41.450Z,6.20
2022-11-12T22:59:13.120Z,5.82
2022-11-12T23:01:43.149Z,6.63
2022-11-12T23:04:13.057Z,6.53
2022-11-12T23:06:43.054Z,7.05
2022-11-12T23:09:18.343Z,6.38
2022-11-12T23:11:48.355Z,6.22
2022-11-12T23:14:18.347Z,6.45
2022-11-12T23:16:48.375Z,7.20
2022-11-12T23:19:18.413Z,7.55
2022-11-12T23:21:48.301Z,8.00
2022-11-12T23:24:18.209Z,7.50
2022-11-12T23:26:48.179Z,7.18
2022-11-12T23:29:18.127Z,6.55
2022-11-12T23:31:48.310Z,6.15
2022-11-12T23:34:18.283Z,6.88
2022-11-12T23:36:48.331Z,7.10
2022-11-12T23:39:18.266Z,7.53
2022-11-12T23:41:48.210Z,6.88
2022-11-12T23:44:18.387Z,7.40
2022-11-12T23:46:48.905Z,6.65
2022-11-12T23:49:18.807Z,7.40
2022-11-12T23:51:48.674Z,6.43
2022-11-12T23:54:18.647Z,7.35
2022-11-12T23:56:48.526Z,7.35
2022-11-12T23:59:18.523Z,7.30
